createdAt,value
2023-05-23T00:00:58.287Z,99078.97
2023-05-23T00:03:28.580Z,99085.16
2023-05-23T00:05:55.626Z,99077.91
2023-05-23T00:08:22.456Z,99078.50
2023-05-23T00:10:49.246Z,99075.38
2023-05-23T00:13:15.849Z,99058.38
2023-05-23T00:15:42.786Z,99049.22
2023-05-23T00:18:10.974Z,99046.53
2023-05-23T00:20:38.481Z,99049.69
2023-05-23T00:23:05.102Z,99042.66
2023-05-23T00:25:31.620Z,99039.78
2023-05-23T00:27:58.243Z,99014.34
2023-05-23T00:30:25.029Z,99008.22
2023-05-23T00:32:53.318Z,98985.47
2023-05-23T00:35:23.153Z,98972.47
2023-05-23T00:37:50.074Z,98954.22
2023-05-23T00:40:17.080Z,98960.41
2023-05-23T00:42:43.907Z,98957.94
2023-05-23T00:45:11.058Z,98950.09
2023-05-23T00:47:38.276Z,98953.59
2023-05-23T00:50:06.224Z,98956.28
2023-05-23T00:52:33.723Z,98957.56
2023-05-23T00:55:00.249Z,98952.19
2023-05-23T00:57:26.745Z,98959.25
2023-05-23T00:59:53.374Z,98967.06
2023-05-23T01:02:20.357Z,98970.38
2023-05-23T01:04:50.970Z,98964.16
2023-05-23T01:07:17.444Z,98965.00
2023-05-23T01:09:44.015Z,98957.94
2023-05-23T01:12:14.818Z,98957.22
2023-05-23T01:15:05.842Z,98960.59
2023-05-23T01:18:10.669Z,98952.34
2023-05-23T01:21:01.433Z,98953.63
2023-05-23T01:24:04.780Z,98945.78
2023-05-23T01:26:41.374Z,98945.44
2023-05-23T01:29:15.106Z,98947.50
2023-05-23T01:31:46.964Z,98942.56
2023-05-23T01:34:14.513Z,98950.06
2023-05-23T01:36:43.214Z,98943.63
2023-05-23T01:39:09.818Z,98949.47
2023-05-23T01:41:36.932Z,98946.44
2023-05-23T01:44:04.638Z,98949.16
2023-05-23T01:46:32.542Z,98955.75
2023-05-23T01:49:00.660Z,98952.00
2023-05-23T01:51:27.556Z,98957.38
2023-05-23T01:53:54.190Z,98949.91
2023-05-23T01:56:21.391Z,98956.94
2023-05-23T01:58:48.099Z,98953.41
2023-05-23T02:01:15.354Z,98950.34
2023-05-23T02:03:42.339Z,98954.09
2023-05-23T02:06:08.948Z,98950.22
2023-05-23T02:08:35.657Z,98962.03
2023-05-23T02:11:02.467Z,98963.66
2023-05-23T02:13:29.181Z,98959.53
2023-05-23T02:15:56.088Z,98966.19
2023-05-23T02:18:23.012Z,98960.91
2023-05-23T02:20:49.478Z,98951.84
2023-05-23T02:23:16.329Z,98942.59
2023-05-23T02:25:43.318Z,98939.28
2023-05-23T02:28:13.073Z,98938.72
2023-05-23T02:30:39.970Z,98939.16
2023-05-23T02:33:07.479Z,98942.88
2023-05-23T02:35:34.471Z,98941.69
2023-05-23T02:38:01.122Z,98948.56
2023-05-23T02:40:27.988Z,98942.38
2023-05-23T02:42:54.597Z,98931.19
2023-05-23T02:45:21.128Z,98938.09
2023-05-23T02:47:47.730Z,98940.16
2023-05-23T02:50:14.488Z,98935.63
2023-05-23T02:52:41.068Z,98928.59
2023-05-23T02:55:08.448Z,98938.09
2023-05-23T02:57:35.669Z,98934.34
2023-05-23T03:00:02.584Z,98931.06
2023-05-23T03:02:29.221Z,98937.81
2023-05-23T03:04:56.001Z,98938.38
2023-05-23T03:07:28.204Z,98951.19
2023-05-23T03:09:55.392Z,98956.13
2023-05-23T03:12:22.224Z,98955.44
2023-05-23T03:14:49.023Z,98969.28
2023-05-23T03:17:15.934Z,98969.28
2023-05-23T03:19:43.132Z,98971.75
2023-05-23T03:22:09.863Z,98966.72
2023-05-23T03:24:36.580Z,98960.09
2023-05-23T03:27:03.692Z,98954.63
2023-05-23T03:29:30.880Z,98962.25
2023-05-23T03:31:57.587Z,98974.44
2023-05-23T03:34:24.318Z,98979.81
2023-05-23T03:36:51.026Z,98985.81
2023-05-23T03:39:17.867Z,98991.78
2023-05-23T03:41:44.741Z,98989.09
2023-05-23T03:44:11.608Z,98998.44
2023-05-23T03:46:39.752Z,99000.91
2023-05-23T03:49:07.005Z,99001.53
2023-05-23T03:51:35.016Z,98995.06
2023-05-23T03:54:01.802Z,98999.41
2023-05-23T03:56:28.512Z,98990.75
2023-05-23T03:58:55.312Z,98982.28
2023-05-23T04:01:22.227Z,98982.34
2023-05-23T04:03:49.307Z,98976.16
2023-05-23T04:06:16.145Z,98966.88
2023-05-23T04:08:42.779Z,98957.66
2023-05-23T04:11:09.624Z,98971.44
2023-05-23T04:13:36.276Z,98985.13
2023-05-23T04:16:03.206Z,98979.59
2023-05-23T04:18:33.334Z,98977.03
2023-05-23T04:21:00.551Z,98984.31
2023-05-23T04:23:27.429Z,98980.09
2023-05-23T04:25:54.156Z,98989.25
2023-05-23T04:28:21.028Z,98981.78
2023-05-23T04:30:47.869Z,98980.47
2023-05-23T04:33:14.352Z,98980.84
2023-05-23T04:35:41.190Z,98987.53
2023-05-23T04:38:08.057Z,98985.56
2023-05-23T04:40:34.580Z,98986.28
2023-05-23T04:43:01.305Z,98993.09
2023-05-23T04:45:27.837Z,99014.81
2023-05-23T04:47:54.727Z,99018.53
2023-05-23T04:50:21.651Z,99029.09
2023-05-23T04:52:48.174Z,99028.19
2023-05-23T04:55:14.864Z,99035.03
2023-05-23T04:57:41.458Z,99036.22
2023-05-23T05:00:08.394Z,99051.69
2023-05-23T05:02:35.109Z,99052.09
2023-05-23T05:05:01.701Z,99053.25
2023-05-23T05:07:28.528Z,99050.56
2023-05-23T05:09:55.222Z,99064.88
2023-05-23T05:12:21.878Z,99074.97
2023-05-23T05:14:48.427Z,99083.19
2023-05-23T05:17:14.933Z,99084.06
2023-05-23T05:19:41.499Z,99091.03
2023-05-23T05:22:08.075Z,99094.66
2023-05-23T05:24:34.951Z,99103.03
2023-05-23T05:27:01.492Z,99130.28
2023-05-23T05:29:28.385Z,99138.53
2023-05-23T05:31:54.940Z,99164.50
2023-05-23T05:34:21.625Z,99180.31
2023-05-23T05:36:48.461Z,99208.41
2023-05-23T05:39:15.433Z,99234.84
2023-05-23T05:41:41.948Z,99256.19
2023-05-23T05:44:09.254Z,99252.56
2023-05-23T05:46:36.184Z,99264.69
2023-05-23T05:49:03.172Z,99275.28
2023-05-23T05:51:29.614Z,99277.88
2023-05-23T05:53:56.297Z,99291.72
2023-05-23T05:56:23.164Z,99284.22
2023-05-23T05:58:49.773Z,99285.28
2023-05-23T06:01:16.619Z,99285.44
2023-05-23T06:03:43.607Z,99286.75
2023-05-23T06:06:10.317Z,99290.19
2023-05-23T06:08:36.847Z,99264.56
2023-05-23T06:11:03.834Z,99241.22
2023-05-23T06:13:30.817Z,99189.28
2023-05-23T06:15:57.801Z,99206.63
2023-05-23T06:18:24.539Z,99242.38
2023-05-23T06:20:51.030Z,99310.59
2023-05-23T06:23:18.191Z,99296.56
2023-05-23T06:25:44.707Z,99336.56
2023-05-23T06:28:11.218Z,99379.69
2023-05-23T06:30:38.105Z,99406.50
2023-05-23T06:33:05.384Z,99423.69
2023-05-23T06:35:32.203Z,99437.13
2023-05-23T06:37:58.819Z,99446.41
2023-05-23T06:40:25.616Z,99475.06
2023-05-23T06:42:52.097Z,99497.97
2023-05-23T06:45:20.140Z,99495.03
2023-05-23T06:47:46.757Z,99529.72
2023-05-23T06:50:13.430Z,99543.94
2023-05-23T06:52:40.165Z,99544.06
2023-05-23T06:55:07.664Z,99571.38
2023-05-23T06:57:34.288Z,99554.22
2023-05-23T07:00:00.904Z,99523.25
2023-05-23T07:02:28.179Z,99537.13
2023-05-23T07:04:54.826Z,99561.63
2023-05-23T07:07:21.726Z,99551.34
2023-05-23T07:09:48.845Z,99577.69
2023-05-23T07:12:18.522Z,99562.13
2023-05-23T07:14:45.044Z,99578.06
2023-05-23T07:17:11.736Z,99575.38
2023-05-23T07:19:38.571Z,99573.38
2023-05-23T07:22:05.335Z,99589.75
2023-05-23T07:24:31.931Z,99604.81
2023-05-23T07:26:58.503Z,99579.56
2023-05-23T07:29:25.383Z,99590.53
2023-05-23T07:31:52.206Z,99564.91
2023-05-23T07:34:20.205Z,99567.00
2023-05-23T07:36:46.942Z,99567.25
2023-05-23T07:39:13.844Z,99572.94
2023-05-23T07:41:41.150Z,99618.28
2023-05-23T07:44:07.894Z,99648.47
2023-05-23T07:46:34.426Z,99677.66
2023-05-23T07:49:04.386Z,99676.22
2023-05-23T07:51:31.480Z,99680.97
2023-05-23T07:53:58.109Z,99695.94
2023-05-23T07:56:25.373Z,99692.03
2023-05-23T07:58:52.693Z,99700.25
2023-05-23T08:01:19.657Z,99705.91
2023-05-23T08:03:49.883Z,99699.00
2023-05-23T08:06:16.747Z,99671.63
2023-05-23T08:08:43.713Z,99665.97
2023-05-23T08:11:10.324Z,99635.53
2023-05-23T08:13:36.904Z,99601.66
2023-05-23T08:16:03.845Z,99612.22
2023-05-23T08:18:31.863Z,99584.22
2023-05-23T08:20:58.809Z,99539.59
2023-05-23T08:23:25.288Z,99517.41
2023-05-23T08:25:54.758Z,99492.38
2023-05-23T08:28:21.273Z,99429.28
2023-05-23T08:30:47.976Z,99401.69
2023-05-23T08:33:14.633Z,99371.22
2023-05-23T08:35:41.893Z,99352.19
2023-05-23T08:38:11.835Z,99336.63
2023-05-23T08:40:41.567Z,99336.75
2023-05-23T08:43:10.629Z,99362.22
2023-05-23T08:45:37.529Z,99369.25
2023-05-23T08:48:08.214Z,99354.03
2023-05-23T08:50:39.158Z,99363.78
2023-05-23T08:53:06.655Z,99344.53
2023-05-23T08:55:33.974Z,99340.16
2023-05-23T08:58:01.996Z,99342.06
2023-05-23T09:00:28.721Z,99334.13
2023-05-23T09:02:55.972Z,99361.31
2023-05-23T09:05:23.029Z,99384.56
2023-05-23T09:07:50.505Z,99387.94
2023-05-23T09:10:19.234Z,99380.66
2023-05-23T09:12:46.150Z,99335.16
2023-05-23T09:15:13.306Z,99352.78
2023-05-23T09:17:40.258Z,99322.41
2023-05-23T09:20:15.013Z,99319.97
2023-05-23T09:22:46.893Z,99281.16
2023-05-23T09:25:14.240Z,99298.81
2023-05-23T09:27:42.151Z,99268.22
2023-05-23T09:30:11.597Z,99268.00
2023-05-23T09:32:38.874Z,99250.06
2023-05-23T09:35:08.943Z,99224.16
2023-05-23T09:37:45.962Z,99156.47
2023-05-23T09:40:14.922Z,99095.66
2023-05-23T09:42:43.782Z,99078.31
2023-05-23T09:45:12.932Z,99082.09
2023-05-23T09:47:41.337Z,99090.16
2023-05-23T09:50:09.310Z,99121.88
2023-05-23T09:52:39.104Z,99170.22
2023-05-23T09:55:06.721Z,99148.81
2023-05-23T09:57:40.158Z,99124.63
2023-05-23T10:00:08.144Z,99102.97
2023-05-23T10:02:37.763Z,99090.47
2023-05-23T10:05:07.290Z,99127.41
2023-05-23T10:07:35.477Z,99074.03
2023-05-23T10:10:06.606Z,99097.19
2023-05-23T10:12:36.100Z,99107.88
2023-05-23T10:15:05.169Z,99135.47
2023-05-23T10:17:40.767Z,99112.16
2023-05-23T10:20:11.631Z,99102.22
2023-05-23T10:22:39.218Z,99093.91
2023-05-23T10:25:07.177Z,99082.59
2023-05-23T10:27:34.360Z,99081.13
2023-05-23T10:30:01.405Z,99080.53
2023-05-23T10:32:37.307Z,99102.00
2023-05-23T10:35:25.357Z,99086.88
2023-05-23T10:38:17.296Z,99067.41
2023-05-23T10:41:25.730Z,99058.56
2023-05-23T10:44:12.911Z,99019.81
2023-05-23T10:47:00.160Z,99011.41
2023-05-23T10:49:43.382Z,99011.72
2023-05-23T10:52:13.191Z,98971.47
2023-05-23T10:54:49.562Z,98974.53
2023-05-23T10:57:18.973Z,98974.84
2023-05-23T10:59:46.969Z,98958.78
2023-05-23T11:02:15.870Z,98959.16
2023-05-23T11:04:43.537Z,98973.88
2023-05-23T11:07:32.806Z,98958.25
2023-05-23T11:10:11.191Z,98937.16
2023-05-23T11:12:40.857Z,98950.72
2023-05-23T11:15:19.896Z,98948.97
2023-05-23T11:17:52.808Z,98913.50
2023-05-23T11:20:20.573Z,98906.56
2023-05-23T11:22:54.941Z,98922.97
2023-05-23T11:25:21.624Z,98942.56
2023-05-23T11:27:50.219Z,98921.53
2023-05-23T11:30:18.078Z,98933.13
2023-05-23T11:32:52.269Z,98933.75
2023-05-23T11:35:19.338Z,98945.56
2023-05-23T11:37:46.094Z,98939.28
2023-05-23T11:40:27.302Z,98946.09
2023-05-23T11:42:54.815Z,98915.44
2023-05-23T11:45:22.986Z,98897.50
2023-05-23T11:47:49.591Z,98895.97
2023-05-23T11:50:17.138Z,98893.38
2023-05-23T11:52:46.860Z,98898.16
2023-05-23T11:55:14.460Z,98921.53
2023-05-23T11:57:41.428Z,98918.28
2023-05-23T12:00:09.206Z,98894.28
2023-05-23T12:02:44.223Z,98884.69
2023-05-23T12:05:12.900Z,98873.53
2023-05-23T12:07:42.875Z,98854.63
2023-05-23T12:10:11.095Z,98846.84
2023-05-23T12:12:38.040Z,98844.72
2023-05-23T12:15:06.437Z,98841.34
2023-05-23T12:17:35.946Z,98833.78
2023-05-23T12:20:03.392Z,98835.69
2023-05-23T12:22:31.359Z,98817.88
2023-05-23T12:24:58.359Z,98826.44
2023-05-23T12:27:29.240Z,98818.91
2023-05-23T12:30:13.487Z,98822.72
2023-05-23T12:32:44.970Z,98824.75
2023-05-23T12:35:13.914Z,98816.09
2023-05-23T12:37:42.430Z,98817.34
2023-05-23T12:40:17.563Z,98817.72
2023-05-23T12:42:51.971Z,98822.06
2023-05-23T12:45:23.042Z,98819.13
2023-05-23T12:47:52.990Z,98815.00
2023-05-23T12:50:20.988Z,98806.88
2023-05-23T12:52:47.775Z,98804.56
2023-05-23T12:55:14.492Z,98810.19
2023-05-23T12:57:41.675Z,98806.84
2023-05-23T13:00:09.116Z,98802.22
2023-05-23T13:02:35.931Z,98801.06
2023-05-23T13:05:02.949Z,98791.41
2023-05-23T13:07:29.938Z,98790.25
2023-05-23T13:09:57.069Z,98786.88
2023-05-23T13:12:37.028Z,98784.16
2023-05-23T13:15:05.200Z,98778.16
2023-05-23T13:17:31.921Z,98776.72
2023-05-23T13:19:58.513Z,98783.78
2023-05-23T13:22:25.096Z,98785.81
2023-05-23T13:24:51.801Z,98788.50
2023-05-23T13:27:19.837Z,98787.53
2023-05-23T13:29:46.465Z,98787.63
2023-05-23T13:32:13.166Z,98785.56
2023-05-23T13:34:39.780Z,98792.00
2023-05-23T13:37:08.988Z,98785.63
2023-05-23T13:39:35.686Z,98786.97
2023-05-23T13:42:02.701Z,98777.44
2023-05-23T13:44:29.633Z,98780.09
2023-05-23T13:46:58.592Z,98784.13
2023-05-23T13:49:25.690Z,98791.81
2023-05-23T13:51:52.467Z,98791.16
2023-05-23T13:54:19.342Z,98792.97
2023-05-23T13:56:45.840Z,98806.03
2023-05-23T13:59:12.681Z,98823.53
2023-05-23T14:01:39.305Z,98827.78
2023-05-23T14:04:07.214Z,98845.34
2023-05-23T14:06:34.044Z,98838.53
2023-05-23T14:09:00.914Z,98848.84
2023-05-23T14:11:27.759Z,98831.34
2023-05-23T14:13:54.837Z,98836.91
2023-05-23T14:16:22.000Z,98827.56
2023-05-23T14:18:49.222Z,98817.72
2023-05-23T14:21:17.594Z,98821.91
2023-05-23T14:23:44.659Z,98817.75
2023-05-23T14:26:13.086Z,98821.09
2023-05-23T14:28:40.515Z,98813.63
2023-05-23T14:31:07.723Z,98815.47
2023-05-23T14:33:35.313Z,98815.31
2023-05-23T14:36:02.604Z,98816.78
2023-05-23T14:38:29.141Z,98820.25
2023-05-23T14:40:56.740Z,98812.09
2023-05-23T14:43:23.875Z,98813.44
2023-05-23T14:45:50.808Z,98816.28
2023-05-23T14:48:18.178Z,98818.56
2023-05-23T14:50:45.389Z,98820.03
2023-05-23T14:53:12.021Z,98820.22
2023-05-23T14:55:38.866Z,98814.38
2023-05-23T14:58:05.522Z,98810.41
2023-05-23T15:00:32.233Z,98804.94
2023-05-23T15:02:58.898Z,98813.75
2023-05-23T15:05:25.891Z,98809.41
2023-05-23T15:07:53.180Z,98809.19
2023-05-23T15:10:22.795Z,98806.25
2023-05-23T15:12:49.801Z,98809.84
2023-05-23T15:15:16.600Z,98813.81
2023-05-23T15:17:43.623Z,98809.84
2023-05-23T15:20:11.007Z,98803.72
2023-05-23T15:22:39.825Z,98798.94
2023-05-23T15:25:08.328Z,98798.09
2023-05-23T15:27:37.632Z,98788.81
2023-05-23T15:30:04.979Z,98788.16
2023-05-23T15:32:31.565Z,98781.94
2023-05-23T15:34:58.211Z,98784.16
2023-05-23T15:37:25.142Z,98787.28
2023-05-23T15:39:52.075Z,98780.03
2023-05-23T15:42:18.610Z,98780.53
2023-05-23T15:44:45.697Z,98778.09
2023-05-23T15:47:12.303Z,98780.06
2023-05-23T15:49:39.053Z,98771.19
2023-05-23T15:52:05.973Z,98781.75
2023-05-23T15:54:32.697Z,98783.69
2023-05-23T15:56:59.304Z,98789.94
2023-05-23T15:59:26.284Z,98782.44
2023-05-23T16:01:53.335Z,98778.97
2023-05-23T16:04:19.938Z,98766.09
2023-05-23T16:06:46.712Z,98762.50
2023-05-23T16:09:13.956Z,98765.28
2023-05-23T16:11:41.403Z,98770.25
2023-05-23T16:14:07.950Z,98768.44
2023-05-23T16:16:37.492Z,98773.91
2023-05-23T16:19:04.252Z,98773.44
2023-05-23T16:21:31.198Z,98770.75
2023-05-23T16:23:57.681Z,98765.03
2023-05-23T16:26:24.583Z,98758.81
2023-05-23T16:28:51.602Z,98754.69
2023-05-23T16:31:18.320Z,98754.41
2023-05-23T16:33:45.231Z,98749.84
2023-05-23T16:36:12.539Z,98752.72
2023-05-23T16:38:39.451Z,98756.50
2023-05-23T16:41:06.381Z,98757.69
2023-05-23T16:43:33.989Z,98757.03
2023-05-23T16:46:01.212Z,98758.59
2023-05-23T16:48:27.764Z,98762.72
2023-05-23T16:50:54.888Z,98767.41
2023-05-23T16:53:22.434Z,98756.63
2023-05-23T16:55:49.018Z,98758.72
2023-05-23T16:58:18.015Z,98753.19
2023-05-23T17:00:45.936Z,98760.00
2023-05-23T17:03:12.748Z,98764.34
2023-05-23T17:05:39.834Z,98765.88
2023-05-23T17:08:06.571Z,98766.25
2023-05-23T17:10:34.355Z,98774.91
2023-05-23T17:13:01.063Z,98783.25
2023-05-23T17:15:27.595Z,98780.97
2023-05-23T17:17:54.178Z,98801.06
2023-05-23T17:20:20.774Z,98819.78
2023-05-23T17:22:47.622Z,98841.63
2023-05-23T17:25:14.342Z,98852.63
2023-05-23T17:27:41.157Z,98863.38
2023-05-23T17:30:08.552Z,98869.25
2023-05-23T17:32:35.882Z,98868.09
2023-05-23T17:35:02.693Z,98878.44
2023-05-23T17:37:29.715Z,98884.59
2023-05-23T17:39:57.899Z,98887.31
2023-05-23T17:42:27.312Z,98890.41
2023-05-23T17:44:54.300Z,98882.47
2023-05-23T17:47:23.440Z,98890.44
2023-05-23T17:49:50.232Z,98885.50
2023-05-23T17:52:17.292Z,98912.06
2023-05-23T17:54:44.261Z,98914.28
2023-05-23T17:57:11.186Z,98930.72
2023-05-23T17:59:38.019Z,98930.78
2023-05-23T18:02:05.396Z,98950.56
2023-05-23T18:04:32.179Z,98963.84
2023-05-23T18:06:59.881Z,98972.31
2023-05-23T18:09:27.215Z,98981.13
2023-05-23T18:11:57.108Z,98978.69
2023-05-23T18:14:24.117Z,98989.28
2023-05-23T18:16:51.148Z,99001.59
2023-05-23T18:19:20.787Z,99012.69
2023-05-23T18:21:47.629Z,99027.13
2023-05-23T18:24:14.289Z,99032.41
2023-05-23T18:26:41.797Z,99032.78
2023-05-23T18:29:09.671Z,99046.03
2023-05-23T18:31:36.441Z,99047.72
2023-05-23T18:34:04.601Z,99049.22
2023-05-23T18:36:31.621Z,99045.94
2023-05-23T18:38:58.704Z,99049.00
2023-05-23T18:41:25.458Z,99047.34
2023-05-23T18:43:52.114Z,99036.66
2023-05-23T18:46:19.079Z,99031.97
2023-05-23T18:48:45.701Z,99029.16
2023-05-23T18:51:12.708Z,99034.56
2023-05-23T18:53:42.227Z,99037.72
2023-05-23T18:56:09.492Z,99037.59
2023-05-23T18:58:36.124Z,99041.81
2023-05-23T19:01:04.356Z,99053.44
2023-05-23T19:03:31.433Z,99058.34
2023-05-23T19:05:58.133Z,99071.63
2023-05-23T19:08:24.983Z,99088.38
2023-05-23T19:10:51.811Z,99098.22
2023-05-23T19:13:20.661Z,99112.41
2023-05-23T19:15:48.249Z,99130.78
2023-05-23T19:18:14.975Z,99140.63
2023-05-23T19:20:41.951Z,99157.47
2023-05-23T19:23:08.666Z,99173.16
2023-05-23T19:25:35.247Z,99183.13
2023-05-23T19:28:02.265Z,99189.19
2023-05-23T19:30:28.926Z,99203.38
2023-05-23T19:32:55.857Z,99206.28
2023-05-23T19:35:22.713Z,99220.81
2023-05-23T19:37:49.693Z,99235.78
2023-05-23T19:40:16.511Z,99243.38
2023-05-23T19:42:43.440Z,99243.38
2023-05-23T19:45:10.480Z,99255.78
2023-05-23T19:47:37.213Z,99258.13
2023-05-23T19:50:04.424Z,99265.38
2023-05-23T19:52:32.159Z,99272.88
2023-05-23T19:55:01.246Z,99272.69
2023-05-23T19:57:30.167Z,99277.06
2023-05-23T19:59:56.607Z,99285.59
2023-05-23T20:02:23.235Z,99295.13
2023-05-23T20:04:49.854Z,99288.28
2023-05-23T20:07:16.689Z,99289.19
2023-05-23T20:09:43.486Z,99284.81
2023-05-23T20:12:12.922Z,99301.22
2023-05-23T20:14:39.720Z,99300.59
2023-05-23T20:17:06.489Z,99314.31
2023-05-23T20:19:33.051Z,99318.34
2023-05-23T20:22:00.052Z,99308.38
2023-05-23T20:24:26.765Z,99305.06
2023-05-23T20:26:53.675Z,99317.94
2023-05-23T20:29:20.406Z,99326.88
2023-05-23T20:31:46.999Z,99331.22
2023-05-23T20:34:13.695Z,99335.97
2023-05-23T20:36:40.704Z,99335.78
2023-05-23T20:39:09.903Z,99332.84
2023-05-23T20:41:36.424Z,99330.78
2023-05-23T20:44:03.321Z,99331.59
2023-05-23T20:46:29.966Z,99334.13
2023-05-23T20:48:56.552Z,99346.78
2023-05-23T20:51:23.192Z,99326.19
2023-05-23T20:53:52.018Z,99324.09
2023-05-23T20:56:18.579Z,99321.84
2023-05-23T20:58:45.082Z,99320.22
2023-05-23T21:01:13.021Z,99325.88
2023-05-23T21:03:41.145Z,99330.69
2023-05-23T21:06:08.272Z,99338.59
2023-05-23T21:08:35.129Z,99340.25
2023-05-23T21:11:01.975Z,99343.16
2023-05-23T21:13:28.530Z,99331.84
2023-05-23T21:15:55.133Z,99347.56
2023-05-23T21:18:21.682Z,99344.31
2023-05-23T21:20:48.276Z,99347.03
2023-05-23T21:23:15.054Z,99365.28
2023-05-23T21:25:41.653Z,99359.31
2023-05-23T21:28:08.170Z,99370.94
2023-05-23T21:30:35.076Z,99392.88
2023-05-23T21:33:03.568Z,99388.59
2023-05-23T21:35:30.441Z,99405.31
2023-05-23T21:37:57.316Z,99398.72
2023-05-23T21:40:24.153Z,99401.22
2023-05-23T21:42:50.939Z,99403.53
2023-05-23T21:45:17.578Z,99402.91
2023-05-23T21:47:45.637Z,99397.38
2023-05-23T21:50:12.275Z,99410.19
2023-05-23T21:52:39.191Z,99407.69
2023-05-23T21:55:06.539Z,99400.06
2023-05-23T21:57:33.032Z,99407.50
2023-05-23T21:59:59.713Z,99394.06
2023-05-23T22:02:26.595Z,99399.84
2023-05-23T22:04:53.531Z,99392.63
2023-05-23T22:07:20.156Z,99403.38
2023-05-23T22:09:47.046Z,99393.47
2023-05-23T22:12:13.580Z,99396.53
2023-05-23T22:14:40.136Z,99410.81
2023-05-23T22:17:06.769Z,99414.13
2023-05-23T22:19:33.347Z,99412.06
2023-05-23T22:22:00.179Z,99423.88
2023-05-23T22:24:26.835Z,99429.88
2023-05-23T22:26:53.343Z,99431.09
2023-05-23T22:29:19.861Z,99440.63
2023-05-23T22:31:48.058Z,99446.63
2023-05-23T22:34:14.778Z,99456.75
2023-05-23T22:36:41.400Z,99463.56
2023-05-23T22:39:08.165Z,99462.56
2023-05-23T22:41:34.944Z,99468.53
2023-05-23T22:44:02.029Z,99467.53
2023-05-23T22:46:28.618Z,99471.88
2023-05-23T22:48:55.521Z,99483.03
2023-05-23T22:51:22.649Z,99490.47
2023-05-23T22:53:49.208Z,99492.91
2023-05-23T22:56:16.048Z,99487.13
2023-05-23T22:58:42.877Z,99489.00
2023-05-23T23:01:09.675Z,99488.81
2023-05-23T23:03:36.324Z,99498.09
2023-05-23T23:06:03.189Z,99497.22
2023-05-23T23:08:29.724Z,99494.34
2023-05-23T23:10:56.227Z,99498.69
2023-05-23T23:13:23.000Z,99499.91
2023-05-23T23:15:49.605Z,99504.44
2023-05-23T23:18:16.149Z,99510.66
2023-05-23T23:20:42.773Z,99502.19
2023-05-23T23:23:10.919Z,99493.47
2023-05-23T23:25:37.484Z,99493.06
2023-05-23T23:28:04.184Z,99489.16
2023-05-23T23:30:30.893Z,99494.34
2023-05-23T23:32:57.864Z,99483.19
2023-05-23T23:35:24.723Z,99472.22
2023-05-23T23:37:51.856Z,99468.50
2023-05-23T23:40:18.667Z,99473.28
2023-05-23T23:42:45.228Z,99386.25
2023-05-23T23:45:11.857Z,99349.69
2023-05-23T23:47:38.434Z,99321.78
2023-05-23T23:50:05.719Z,99288.09
2023-05-23T23:52:32.260Z,99270.13
2023-05-23T23:54:58.670Z,99230.63
2023-05-23T23:57:25.208Z,99202.50
2023-05-23T23:59:51.788Z,99197.41
